Time;durP1;ratioP1;P1;durP2;ratioP2;P2;SDS_P1;SDS_P2;PMS_P1;PMS_P2;Temp;Humidity;BMP_temperature;BMP_pressure;BME280_temperature;BME280_humidity;BME280_pressure;Samples;Min_cycle;Max_cycle;Signal;HPM_P1;HPM_P2
2021/10/09 00:00:49;;;;;;;17.63;13.52;;;13.60;80.60;;;;;;4995999;28;20118;-78
2021/10/09 00:03:15;;;;;;;14.85;12.05;;;13.60;80.70;;;;;;4998506;28;20033;-78
2021/10/09 00:05:40;;;;;;;12.13;8.93;;;13.60;80.70;;;;;;5001383;28;20030;-77
2021/10/09 00:08:12;;;;;;;18.00;13.65;;;13.60;80.80;;;;;;5000758;28;20018;-78
2021/10/09 00:10:38;;;;;;;14.40;11.30;;;13.50;80.90;;;;;;4999730;28;20439;-77
2021/10/09 00:13:04;;;;;;;16.48;11.98;;;13.60;80.90;;;;;;5004635;28;20065;-77
2021/10/09 00:15:29;;;;;;;19.45;15.25;;;13.50;81.00;;;;;;5003049;28;20028;-77
2021/10/09 00:17:55;;;;;;;16.25;12.50;;;13.50;81.00;;;;;;5010415;28;20063;-78
2021/10/09 00:20:20;;;;;;;18.15;13.57;;;13.40;81.20;;;;;;5011385;28;20043;-78
2021/10/09 00:22:46;;;;;;;15.63;12.05;;;13.40;81.90;;;;;;5011242;28;20034;-78
2021/10/09 00:25:11;;;;;;;16.98;12.82;;;13.40;81.40;;;;;;5011232;28;20105;-78
2021/10/09 00:27:37;;;;;;;17.23;13.15;;;13.40;81.50;;;;;;5010720;28;20082;-77
2021/10/09 00:30:05;;;;;;;21.15;16.35;;;13.40;81.60;;;;;;5011174;28;20025;-77
2021/10/09 00:32:30;;;;;;;19.13;14.02;;;13.30;81.70;;;;;;5011191;28;20412;-78
2021/10/09 00:34:56;;;;;;;18.45;13.85;;;13.30;81.80;;;;;;5010408;28;20029;-77
2021/10/09 00:37:21;;;;;;;20.67;14.45;;;13.30;81.80;;;;;;5010455;28;20163;-78
2021/10/09 00:39:47;;;;;;;19.50;14.63;;;13.30;81.70;;;;;;5010399;28;20033;-77
2021/10/09 00:42:12;;;;;;;17.50;13.48;;;13.30;81.80;;;;;;5010245;28;20034;-78
2021/10/09 00:44:39;;;;;;;16.83;13.00;;;13.30;81.80;;;;;;5010615;28;20048;-77
2021/10/09 00:47:04;;;;;;;19.33;15.50;;;13.30;81.80;;;;;;5010381;28;20555;-78
2021/10/09 00:49:31;;;;;;;20.17;16.02;;;13.30;81.80;;;;;;5014060;28;20029;-78
2021/10/09 00:51:59;;;;;;;20.92;16.60;;;13.30;81.90;;;;;;5010766;28;20044;-78
2021/10/09 00:54:25;;;;;;;17.67;13.45;;;13.20;82.00;;;;;;5012126;28;20395;-78
2021/10/09 00:56:53;;;;;;;22.30;16.65;;;13.20;82.10;;;;;;5021706;28;20021;-78
2021/10/09 00:59:24;;;;;;;16.92;13.15;;;13.20;82.30;;;;;;5030576;28;20424;-78
2021/10/09 01:01:50;;;;;;;16.13;13.02;;;13.20;82.20;;;;;;5030638;28;20029;-78
2021/10/09 01:04:18;;;;;;;19.23;14.57;;;13.20;82.10;;;;;;5030376;28;20025;-78
2021/10/09 01:06:44;;;;;;;19.70;14.63;;;13.20;82.20;;;;;;5027253;28;20018;-78
2021/10/09 01:09:10;;;;;;;23.88;18.40;;;13.20;82.20;;;;;;5007360;28;20126;-77
2021/10/09 01:11:35;;;;;;;19.73;15.10;;;13.10;82.40;;;;;;5010463;28;20079;-78
2021/10/09 01:14:01;;;;;;;22.20;17.02;;;13.10;82.50;;;;;;5009724;28;20399;-78
2021/10/09 01:16:28;;;;;;;20.85;15.30;;;13.10;82.60;;;;;;5009833;28;20112;-78
2021/10/09 01:18:56;;;;;;;20.75;16.50;;;13.10;82.70;;;;;;5010142;28;20030;-78
2021/10/09 01:21:22;;;;;;;25.77;20.05;;;13.00;82.70;;;;;;5010050;28;20018;-78
2021/10/09 01:23:49;;;;;;;22.30;15.70;;;13.00;82.90;;;;;;5010641;28;20063;-79
2021/10/09 01:26:15;;;;;;;23.48;18.00;;;12.90;82.90;;;;;;5010264;28;20376;-79
2021/10/09 01:28:44;;;;;;;21.17;16.90;;;12.90;83.10;;;;;;5010006;28;20018;-78
2021/10/09 01:31:10;;;;;;;24.17;19.35;;;12.90;83.10;;;;;;5010059;28;20041;-79
2021/10/09 01:33:35;;;;;;;20.98;15.93;;;12.90;83.30;;;;;;5009614;28;20030;-77
2021/10/09 01:36:01;;;;;;;21.85;16.85;;;12.90;83.40;;;;;;5010223;28;20388;-77
2021/10/09 01:38:28;;;;;;;21.45;16.30;;;12.80;83.30;;;;;;5009370;28;20071;-77
2021/10/09 01:40:55;;;;;;;25.98;19.33;;;12.80;83.50;;;;;;5010418;28;20025;-77
2021/10/09 01:43:23;;;;;;;21.75;15.60;;;12.70;83.60;;;;;;5009904;28;20075;-77
2021/10/09 01:45:49;;;;;;;22.95;17.40;;;12.70;83.80;;;;;;5010120;28;20446;-77
2021/10/09 01:48:15;;;;;;;16.70;12.63;;;12.70;83.90;;;;;;5009842;28;20067;-77
2021/10/09 01:50:42;;;;;;;16.55;13.00;;;12.70;83.90;;;;;;5010445;28;20030;-78
2021/10/09 01:53:09;;;;;;;21.60;16.33;;;12.70;83.80;;;;;;5010051;28;20476;-77
2021/10/09 01:55:38;;;;;;;18.25;13.55;;;12.70;83.80;;;;;;5010186;28;20407;-78
2021/10/09 01:58:05;;;;;;;25.48;17.48;;;12.70;83.80;;;;;;5009466;28;20179;-77
2021/10/09 02:00:32;;;;;;;20.63;16.05;;;12.60;83.80;;;;;;5013399;28;20476;-77
2021/10/09 02:03:02;;;;;;;24.85;19.10;;;12.60;84.00;;;;;;5022308;28;20038;-77
2021/10/09 02:05:28;;;;;;;20.48;15.95;;;12.60;84.10;;;;;;5009695;28;20044;-77
2021/10/09 02:07:54;;;;;;;25.15;19.48;;;12.50;84.10;;;;;;5009494;28;20501;-77
2021/10/09 02:10:19;;;;;;;22.60;17.02;;;12.50;84.30;;;;;;5008958;28;20026;-77
2021/10/09 02:12:45;;;;;;;19.50;14.82;;;12.50;84.40;;;;;;5009704;28;20025;-77
2021/10/09 02:15:15;;;;;;;22.67;17.00;;;12.50;84.40;;;;;;5009634;28;20120;-77
2021/10/09 02:25:47;;;;;;;24.75;18.55;;;12.30;84.90;;;;;;5008764;28;20036;-77
2021/10/09 02:28:23;;;;;;;23.60;18.13;;;12.30;85.00;;;;;;5008864;28;20029;-78
2021/10/09 02:30:51;;;;;;;23.30;17.48;;;12.20;85.10;;;;;;5009535;28;20033;-77
2021/10/09 02:33:17;;;;;;;19.95;15.10;;;12.20;85.10;;;;;;5009075;28;20093;-78
2021/10/09 02:35:45;;;;;;;22.65;17.70;;;12.20;85.30;;;;;;5009204;28;20237;-78
2021/10/09 02:38:10;;;;;;;27.25;20.15;;;12.20;85.20;;;;;;5008799;28;20047;-78
2021/10/09 02:40:42;;;;;;;24.92;18.67;;;12.10;85.30;;;;;;5009450;28;20439;-79
2021/10/09 02:43:08;;;;;;;27.15;19.67;;;12.10;85.40;;;;;;5009072;28;20041;-78
2021/10/09 02:45:34;;;;;;;21.52;15.43;;;12.10;85.40;;;;;;5009021;28;20026;-78
2021/10/09 02:48:01;;;;;;;27.25;20.45;;;12.10;85.40;;;;;;5008744;28;21565;-79
2021/10/09 02:50:28;;;;;;;25.52;18.33;;;12.00;85.50;;;;;;5009294;28;20433;-77
2021/10/09 02:52:53;;;;;;;22.77;16.90;;;12.00;85.60;;;;;;5009042;28;20026;-78
2021/10/09 02:55:20;;;;;;;32.55;23.85;;;12.00;85.60;;;;;;5008105;28;20117;-78
2021/10/09 02:57:46;;;;;;;25.67;19.50;;;12.00;85.50;;;;;;5007693;28;20028;-77
2021/10/09 03:00:13;;;;;;;28.20;21.13;;;12.00;85.60;;;;;;5011295;28;20472;-77
2021/10/09 03:02:38;;;;;;;26.50;20.50;;;12.00;85.60;;;;;;5008802;28;20026;-77
2021/10/09 03:05:05;;;;;;;25.60;18.67;;;11.90;85.70;;;;;;5008746;28;20084;-77
2021/10/09 03:07:31;;;;;;;22.80;17.35;;;11.90;85.70;;;;;;5004399;28;20080;-77
2021/10/09 03:09:56;;;;;;;22.75;17.13;;;11.90;85.70;;;;;;4997439;28;20652;-77
2021/10/09 03:12:22;;;;;;;24.05;18.02;;;11.90;85.60;;;;;;5008541;28;20597;-77
2021/10/09 03:14:47;;;;;;;22.92;16.83;;;11.90;85.60;;;;;;5009028;28;20034;-77
2021/10/09 03:17:13;;;;;;;24.50;17.88;;;11.90;85.70;;;;;;4993219;28;20485;-78
2021/10/09 03:19:38;;;;;;;24.42;18.50;;;11.90;85.70;;;;;;5006644;28;20061;-77
2021/10/09 03:22:04;;;;;;;26.90;20.83;;;11.90;85.70;;;;;;5007451;28;20391;-77
2021/10/09 03:24:30;;;;;;;26.80;19.63;;;11.90;85.80;;;;;;4990270;28;20030;-77
2021/10/09 03:26:55;;;;;;;24.58;19.00;;;11.80;85.70;;;;;;5006345;28;20018;-76
2021/10/09 03:29:21;;;;;;;21.92;16.13;;;11.80;85.70;;;;;;5007807;28;20034;-77
2021/10/09 03:31:46;;;;;;;19.48;14.57;;;11.80;85.70;;;;;;5008073;28;20109;-78
2021/10/09 03:34:12;;;;;;;25.80;19.33;;;11.80;85.60;;;;;;5008231;28;20037;-78
2021/10/09 03:36:38;;;;;;;20.38;14.90;;;11.80;85.60;;;;;;5009614;28;20037;-78
2021/10/09 03:39:07;;;;;;;23.25;17.52;;;11.80;85.60;;;;;;5019131;28;20037;-78
2021/10/09 03:41:34;;;;;;;21.70;15.90;;;11.80;85.50;;;;;;4988436;28;20489;-78
2021/10/09 03:44:00;;;;;;;21.83;16.58;;;11.80;85.50;;;;;;4988870;28;20496;-78
2021/10/09 03:46:26;;;;;;;26.30;18.92;;;11.80;85.50;;;;;;4988954;28;20056;-78
2021/10/09 03:48:59;;;;;;;27.77;19.75;;;11.70;85.60;;;;;;4988637;28;20027;-78
2021/10/09 03:54:09;;;;;;;27.23;20.10;;;11.60;85.70;;;;;;5008060;28;20061;-77
2021/10/09 03:56:35;;;;;;;26.23;19.80;;;11.70;85.80;;;;;;5008267;28;20643;-78
2021/10/09 03:59:04;;;;;;;27.38;19.90;;;11.60;85.80;;;;;;5007156;28;20095;-79
2021/10/09 04:01:29;;;;;;;24.48;17.33;;;11.70;85.80;;;;;;5007792;28;20114;-79
2021/10/09 04:03:55;;;;;;;29.20;20.02;;;11.60;85.80;;;;;;5007446;28;20431;-79
2021/10/09 04:06:20;;;;;;;25.00;18.63;;;11.60;85.60;;;;;;5007749;28;20034;-78
2021/10/09 04:08:46;;;;;;;25.33;18.55;;;11.60;85.50;;;;;;5007359;28;20026;-78
2021/10/09 04:11:11;;;;;;;22.38;18.10;;;11.70;85.60;;;;;;5008374;28;20101;-77
2021/10/09 04:13:37;;;;;;;20.25;14.98;;;11.70;85.50;;;;;;5007484;28;20030;-77
2021/10/09 04:16:03;;;;;;;23.58;17.40;;;11.70;85.40;;;;;;5007691;28;20030;-76
2021/10/09 04:18:28;;;;;;;18.27;13.20;;;11.70;85.30;;;;;;5005669;28;20026;-77
2021/10/09 04:20:54;;;;;;;20.25;15.18;;;11.80;85.30;;;;;;5007842;28;20030;-76
2021/10/09 04:23:19;;;;;;;20.45;15.15;;;11.80;85.20;;;;;;5007638;28;20388;-76
2021/10/09 04:25:45;;;;;;;22.67;16.48;;;11.70;85.20;;;;;;5007228;28;20046;-77
2021/10/09 04:28:10;;;;;;;26.77;20.50;;;11.70;85.20;;;;;;5007045;28;20028;-77
2021/10/09 04:30:36;;;;;;;23.83;17.13;;;11.60;85.10;;;;;;5007665;28;20022;-77
2021/10/09 04:33:01;;;;;;;21.50;16.40;;;11.60;85.30;;;;;;5007436;28;20022;-77
2021/10/09 04:35:28;;;;;;;18.00;13.68;;;11.60;85.40;;;;;;5007602;28;20025;-76
2021/10/09 04:37:53;;;;;;;24.30;17.35;;;11.60;85.40;;;;;;5006814;28;20041;-76
2021/10/09 04:40:19;;;;;;;27.05;19.90;;;11.60;85.30;;;;;;5006267;28;20380;-77
2021/10/09 04:42:44;;;;;;;27.88;19.77;;;11.60;85.40;;;;;;5007041;28;20390;-77
2021/10/09 04:45:10;;;;;;;26.45;19.50;;;11.60;85.40;;;;;;5007536;28;20034;-77
2021/10/09 04:47:35;;;;;;;24.25;18.02;;;11.60;85.40;;;;;;5007224;28;20022;-77
2021/10/09 04:50:01;;;;;;;25.38;18.70;;;11.60;85.40;;;;;;5010437;28;20115;-77
2021/10/09 04:52:26;;;;;;;26.65;17.63;;;11.50;85.30;;;;;;5011209;28;20109;-77
2021/10/09 04:54:52;;;;;;;21.27;13.95;;;11.50;85.50;;;;;;5010571;28;20112;-77
2021/10/09 04:57:17;;;;;;;26.70;19.30;;;11.40;85.50;;;;;;5010590;28;20034;-77
2021/10/09 04:59:43;;;;;;;26.55;18.75;;;11.50;85.50;;;;;;5010645;28;20053;-76
2021/10/09 05:02:08;;;;;;;30.70;22.33;;;11.40;85.50;;;;;;5011135;28;20497;-77
2021/10/09 05:04:34;;;;;;;26.70;19.83;;;11.40;85.60;;;;;;5010834;28;20018;-77
2021/10/09 05:06:59;;;;;;;27.17;18.73;;;11.30;85.70;;;;;;5010594;28;20542;-76
2021/10/09 05:09:25;;;;;;;22.65;15.10;;;11.30;85.80;;;;;;5010915;28;20415;-77
2021/10/09 05:11:51;;;;;;;23.33;17.30;;;11.40;85.80;;;;;;5002857;28;20023;-77
2021/10/09 05:14:16;;;;;;;22.15;15.88;;;11.30;85.70;;;;;;4991028;28;20027;-78
2021/10/09 05:16:42;;;;;;;23.77;17.25;;;11.40;85.80;;;;;;4991300;28;20018;-77
2021/10/09 05:19:07;;;;;;;24.13;18.63;;;11.40;85.80;;;;;;4990860;28;20035;-77
2021/10/09 05:21:33;;;;;;;24.77;17.60;;;11.40;85.70;;;;;;4990922;28;20045;-78
2021/10/09 05:23:58;;;;;;;23.58;17.67;;;11.30;85.70;;;;;;4997255;28;20038;-76
2021/10/09 05:26:27;;;;;;;29.05;20.50;;;11.30;85.80;;;;;;5010256;28;20070;-77
2021/10/09 05:28:54;;;;;;;24.73;17.63;;;11.20;85.80;;;;;;5009482;28;20033;-76
2021/10/09 05:32:02;;;;;;;26.38;19.63;;;11.30;86.00;;;;;;5009657;28;20098;-75
2021/10/09 05:34:11;;;;;;;24.52;16.48;;;11.20;86.00;;;;;;5008114;28;20026;-76
2021/10/09 05:36:37;;;;;;;22.40;16.73;;;11.20;86.00;;;;;;5010233;28;20034;-76
2021/10/09 05:39:02;;;;;;;28.85;21.20;;;11.20;86.00;;;;;;5009149;28;20038;-76
2021/10/09 05:41:28;;;;;;;28.23;19.27;;;11.20;86.00;;;;;;5010300;28;20030;-76
2021/10/09 05:43:53;;;;;;;29.38;21.08;;;11.20;86.00;;;;;;5009993;28;20037;-76
2021/10/09 05:46:20;;;;;;;31.85;23.20;;;11.20;86.10;;;;;;5022320;28;20025;-76
2021/10/09 05:48:45;;;;;;;25.95;17.67;;;11.20;86.20;;;;;;5009374;28;20064;-76
2021/10/09 05:51:21;;;;;;;25.75;17.83;;;11.20;86.20;;;;;;5010147;28;20049;-76
2021/10/09 05:56:31;;;;;;;27.17;18.90;;;11.20;86.10;;;;;;5010284;28;20055;-76
2021/10/09 06:31:56;;;;;;;23.08;17.67;;;11.00;86.30;;;;;;5045133;28;20095;-78
2021/10/09 06:48:09;;;;;;;29.25;21.02;;;11.10;86.00;;;;;;5007945;28;20025;-77
2021/10/09 06:50:59;;;;;;;25.75;19.13;;;11.20;86.00;;;;;;5006628;28;20036;-77
2021/10/09 07:01:35;;;;;;;23.58;17.65;;;11.30;85.50;;;;;;5005509;28;20137;-77
2021/10/09 07:04:00;;;;;;;22.20;16.45;;;11.40;85.40;;;;;;4999717;28;20539;-77
2021/10/09 07:06:26;;;;;;;28.55;19.80;;;11.40;85.30;;;;;;5008453;28;20026;-77
2021/10/09 07:08:51;;;;;;;23.63;16.92;;;11.40;85.00;;;;;;5009158;28;20045;-77
2021/10/09 07:11:17;;;;;;;21.92;15.73;;;11.50;84.90;;;;;;5007531;28;20050;-78
2021/10/09 07:13:42;;;;;;;23.10;16.42;;;11.60;84.80;;;;;;5007862;28;20022;-78
2021/10/09 07:16:09;;;;;;;22.52;17.48;;;11.70;84.70;;;;;;5029702;28;20508;-77
2021/10/09 07:18:34;;;;;;;18.77;13.73;;;11.70;84.30;;;;;;5008194;28;20044;-78
2021/10/09 07:21:00;;;;;;;24.67;17.30;;;11.70;84.20;;;;;;5008580;28;20022;-78
2021/10/09 07:23:25;;;;;;;25.55;16.92;;;11.70;84.10;;;;;;5008027;28;20026;-77
2021/10/09 07:25:51;;;;;;;18.92;13.27;;;11.70;84.10;;;;;;5003516;28;20456;-77
2021/10/09 07:28:16;;;;;;;19.60;14.30;;;11.80;84.00;;;;;;5007035;28;20076;-77
2021/10/09 07:30:42;;;;;;;20.58;15.15;;;11.80;83.90;;;;;;5004991;28;20087;-76
2021/10/09 07:33:09;;;;;;;22.35;16.67;;;11.80;83.70;;;;;;5005037;28;20026;-76
2021/10/09 07:35:35;;;;;;;21.40;15.18;;;11.80;83.50;;;;;;5008502;28;20025;-77
2021/10/09 07:38:00;;;;;;;24.23;18.85;;;11.80;83.60;;;;;;5000714;28;20029;-77
2021/10/09 07:40:26;;;;;;;25.98;19.10;;;11.80;83.30;;;;;;5001367;28;20022;-76
2021/10/09 07:42:51;;;;;;;27.17;20.35;;;11.80;83.30;;;;;;5001585;28;20033;-77
2021/10/09 07:45:17;;;;;;;20.83;16.67;;;11.70;83.30;;;;;;5003045;28;20098;-77
2021/10/09 07:47:42;;;;;;;24.80;16.85;;;11.80;83.40;;;;;;4988439;28;20031;-77
2021/10/09 07:50:10;;;;;;;24.27;17.20;;;11.80;83.10;;;;;;4994801;28;20026;-77
2021/10/09 07:52:35;;;;;;;20.50;15.52;;;11.80;82.90;;;;;;5008732;28;20488;-78
2021/10/09 07:55:01;;;;;;;23.88;16.70;;;11.80;82.80;;;;;;4996632;28;20022;-79
2021/10/09 07:57:27;;;;;;;23.40;16.95;;;11.80;82.70;;;;;;4999659;28;20025;-77
2021/10/09 07:59:54;;;;;;;22.45;17.27;;;11.90;82.60;;;;;;5022035;28;20056;-76
2021/10/09 08:02:20;;;;;;;23.42;16.75;;;11.90;82.30;;;;;;4997738;28;20027;-76
2021/10/09 08:04:45;;;;;;;24.23;17.52;;;11.80;81.90;;;;;;5002335;28;20108;-78
2021/10/09 08:07:11;;;;;;;24.15;17.40;;;11.80;81.80;;;;;;5016446;28;20880;-78
2021/10/09 08:09:37;;;;;;;23.98;16.55;;;11.80;81.90;;;;;;5003609;28;20392;-78
2021/10/09 08:12:03;;;;;;;25.15;18.52;;;11.80;81.80;;;;;;5006188;28;20486;-78
2021/10/09 08:14:29;;;;;;;22.30;17.15;;;11.80;81.70;;;;;;5011065;28;20034;-77
2021/10/09 08:16:54;;;;;;;26.20;18.75;;;11.90;81.70;;;;;;5000893;28;20041;-77
2021/10/09 08:19:20;;;;;;;21.40;16.33;;;11.90;81.50;;;;;;5003559;28;20030;-77
2021/10/09 08:21:46;;;;;;;23.40;16.45;;;11.90;81.30;;;;;;5007098;28;20049;-78
2021/10/09 08:24:27;;;;;;;15.85;11.50;;;12.00;81.30;;;;;;5008196;28;20045;-78
2021/10/09 08:40:15;;;;;;;21.42;15.68;;;12.20;80.90;;;;;;5008942;28;20037;-76
2021/10/09 08:42:42;;;;;;;23.15;16.80;;;12.20;80.80;;;;;;5005138;28;20400;-77
2021/10/09 08:45:09;;;;;;;31.15;19.92;;;12.10;80.70;;;;;;5009559;28;20054;-77
2021/10/09 08:47:37;;;;;;;25.45;19.40;;;12.20;80.30;;;;;;5007317;28;20034;-77
2021/10/09 08:50:06;;;;;;;17.33;12.38;;;12.00;79.70;;;;;;5009074;28;20042;-76
2021/10/09 08:52:33;;;;;;;24.90;17.75;;;12.00;80.50;;;;;;5006240;28;20046;-76
2021/10/09 08:55:21;;;;;;;30.00;21.85;;;11.90;80.30;;;;;;5006640;28;20532;-76
2021/10/09 08:57:47;;;;;;;24.23;19.33;;;11.90;80.40;;;;;;5007208;28;20069;-76
2021/10/09 09:00:14;;;;;;;21.48;16.23;;;11.80;80.40;;;;;;5008093;28;20038;-77
2021/10/09 09:03:03;;;;;;;21.80;16.00;;;11.80;80.70;;;;;;5007362;28;20440;-77
2021/10/09 09:30:45;;;;;;;24.90;18.67;;;12.30;80.10;;;;;;5014783;28;20038;-78
2021/10/09 09:33:21;;;;;;;24.85;18.83;;;12.40;79.90;;;;;;5006415;28;20030;-75
2021/10/09 09:36:08;;;;;;;26.90;20.92;;;12.30;79.20;;;;;;5004635;28;20026;-75
2021/10/09 09:41:21;;;;;;;19.35;14.90;;;12.10;79.70;;;;;;5004572;28;20034;-75
2021/10/09 09:43:52;;;;;;;24.33;18.63;;;12.10;79.80;;;;;;5003867;28;20488;-74
2021/10/09 09:46:19;;;;;;;26.05;19.73;;;12.10;80.00;;;;;;5004994;28;20026;-74
2021/10/09 09:48:47;;;;;;;26.08;19.13;;;12.10;80.00;;;;;;5006178;28;20022;-76
2021/10/09 09:51:15;;;;;;;29.58;20.38;;;12.10;80.00;;;;;;5003828;28;20071;-75
2021/10/09 09:53:43;;;;;;;25.00;19.67;;;12.10;79.70;;;;;;5003067;28;20476;-77
2021/10/09 09:56:10;;;;;;;17.65;13.27;;;12.20;79.60;;;;;;5015646;28;20029;-76
2021/10/09 09:58:41;;;;;;;18.90;13.40;;;12.40;79.60;;;;;;5004377;28;20588;-76
2021/10/09 10:01:09;;;;;;;23.42;17.63;;;12.50;79.20;;;;;;5005916;28;20053;-76
2021/10/09 10:03:36;;;;;;;25.35;17.90;;;12.60;78.90;;;;;;5007509;28;20029;-76
2021/10/09 10:06:05;;;;;;;19.55;14.60;;;12.60;78.50;;;;;;5009794;28;20036;-76
2021/10/09 10:08:31;;;;;;;21.23;16.15;;;12.70;78.40;;;;;;4998110;28;20023;-76
2021/10/09 10:10:59;;;;;;;19.70;14.55;;;12.90;77.90;;;;;;5004522;28;20030;-77
2021/10/09 10:13:28;;;;;;;18.90;14.93;;;12.80;77.80;;;;;;5007526;28;20029;-76
2021/10/09 10:15:58;;;;;;;26.98;18.00;;;13.00;77.80;;;;;;5005979;28;20026;-77
2021/10/09 10:18:45;;;;;;;26.80;19.50;;;13.00;77.30;;;;;;5004503;28;20083;-77
2021/10/09 10:21:31;;;;;;;24.83;16.83;;;13.00;77.20;;;;;;5006702;28;20041;-76
2021/10/09 10:23:56;;;;;;;25.55;19.30;;;13.10;77.40;;;;;;4995506;28;20049;-77
2021/10/09 10:26:24;;;;;;;25.58;18.10;;;13.00;76.70;;;;;;5007552;28;20022;-77
2021/10/09 10:28:53;;;;;;;24.05;18.45;;;13.00;76.50;;;;;;5004516;28;20032;-75
2021/10/09 10:31:19;;;;;;;26.52;18.75;;;13.00;76.80;;;;;;5003776;28;20087;-76
2021/10/09 10:33:49;;;;;;;29.20;20.10;;;13.00;76.80;;;;;;5008295;28;20120;-77
2021/10/09 10:36:37;;;;;;;21.02;14.80;;;13.00;76.20;;;;;;5003829;28;20556;-76
2021/10/09 10:39:04;;;;;;;20.95;15.35;;;13.10;76.50;;;;;;5007284;28;20034;-77
2021/10/09 10:41:49;;;;;;;21.83;15.40;;;13.20;76.30;;;;;;5007283;28;20098;-77
2021/10/09 10:45:01;;;;;;;22.42;16.67;;;13.30;76.30;;;;;;5007295;28;20057;-80
2021/10/09 10:47:50;;;;;;;19.42;13.00;;;13.40;76.30;;;;;;4995243;28;20025;-76
2021/10/09 10:50:42;;;;;;;27.15;17.98;;;13.50;76.30;;;;;;4997788;28;20041;-75
2021/10/09 10:53:12;;;;;;;22.02;16.67;;;13.60;75.70;;;;;;5005633;28;20034;-75
2021/10/09 10:56:10;;;;;;;20.67;14.52;;;13.70;75.70;;;;;;5008324;28;20109;-76
2021/10/09 10:58:37;;;;;;;19.50;13.55;;;13.80;75.50;;;;;;5025560;28;20037;-76
2021/10/09 11:01:19;;;;;;;20.13;13.65;;;13.90;75.30;;;;;;5023968;28;20060;-75
2021/10/09 11:03:53;;;;;;;22.45;16.65;;;14.00;75.00;;;;;;5029601;28;20018;-75
2021/10/09 11:06:20;;;;;;;24.88;18.17;;;14.10;74.90;;;;;;4995622;28;20103;-75
2021/10/09 11:08:47;;;;;;;22.38;17.38;;;14.10;74.30;;;;;;5033274;28;20032;-75
2021/10/09 11:11:13;;;;;;;18.98;13.90;;;14.20;73.80;;;;;;5004628;28;20034;-75
2021/10/09 11:13:41;;;;;;;19.83;14.68;;;14.20;73.70;;;;;;5004068;28;20026;-75
2021/10/09 11:16:06;;;;;;;22.73;16.20;;;14.30;73.60;;;;;;4998811;28;20117;-75
2021/10/09 11:18:51;;;;;;;21.65;15.25;;;14.30;72.90;;;;;;5000631;28;20145;-76
2021/10/09 11:21:18;;;;;;;26.92;16.73;;;14.30;73.10;;;;;;5003189;28;20027;-76
2021/10/09 11:23:55;;;;;;;18.52;13.82;;;14.30;73.10;;;;;;5003545;28;20041;-75
2021/10/09 11:26:22;;;;;;;19.40;13.88;;;14.40;73.20;;;;;;5004006;28;20026;-75
2021/10/09 11:29:02;;;;;;;22.02;16.17;;;14.40;73.00;;;;;;4999517;28;20026;-75
2021/10/09 11:31:28;;;;;;;20.90;14.73;;;14.40;72.50;;;;;;5007029;28;20046;-75
2021/10/09 11:34:00;;;;;;;19.75;14.07;;;14.60;72.70;;;;;;5002288;28;20044;-75
2021/10/09 11:36:27;;;;;;;;;;;14.70;72.60;;;;;;5012099;28;20107;-75
2021/10/09 11:39:07;;;;;;;21.10;14.70;;;14.80;72.50;;;;;;5002117;28;19926;-75
2021/10/09 11:41:32;;;;;;;15.68;11.63;;;15.00;72.30;;;;;;5015250;28;20555;-76
2021/10/09 11:44:08;;;;;;;17.38;12.07;;;15.10;72.20;;;;;;5002009;28;20042;-75
2021/10/09 11:55:27;;;;;;;21.10;15.55;;;15.30;70.50;;;;;;5003372;28;20099;-75
2021/10/09 11:57:53;;;;;;;15.77;11.45;;;15.30;69.90;;;;;;5011555;28;20492;-75
2021/10/09 12:00:28;;;;;;;23.17;15.70;;;15.40;70.40;;;;;;5006756;28;20045;-75
2021/10/09 12:03:25;;;;;;;21.02;15.55;;;15.40;70.30;;;;;;5002723;28;20029;-75
2021/10/09 12:05:52;;;;;;;21.35;15.07;;;15.50;70.10;;;;;;5004990;28;20498;-76
2021/10/09 12:08:18;;;;;;;17.55;11.82;;;15.50;69.20;;;;;;5002839;28;20476;-75
2021/10/09 12:11:15;;;;;;;14.88;11.35;;;15.60;69.70;;;;;;5006740;28;20037;-75
2021/10/09 12:14:05;;;;;;;21.15;14.10;;;15.80;69.60;;;;;;5006361;28;20502;-76
2021/10/09 12:16:33;;;;;;;18.35;13.30;;;16.00;69.00;;;;;;5030946;28;20028;-76
2021/10/09 12:19:00;;;;;;;16.30;11.55;;;15.90;68.90;;;;;;5014784;28;20069;-76
2021/10/09 12:21:32;;;;;;;21.33;14.25;;;16.10;68.80;;;;;;5005584;28;20022;-75
2021/10/09 12:23:58;;;;;;;17.38;11.05;;;16.10;68.50;;;;;;5009692;28;20045;-75
2021/10/09 12:26:26;;;;;;;21.48;13.85;;;16.30;68.60;;;;;;5010412;28;20041;-75
2021/10/09 12:29:13;;;;;;;13.07;9.27;;;16.40;67.90;;;;;;5006892;28;20517;-73
2021/10/09 12:31:43;;;;;;;14.43;10.40;;;16.50;67.90;;;;;;5027359;28;20032;-75
2021/10/09 12:34:45;;;;;;;22.13;14.45;;;16.50;67.30;;;;;;5018414;28;20030;-75
2021/10/09 12:37:14;;;;;;;22.67;15.07;;;16.40;66.50;;;;;;4954050;28;20114;-75
2021/10/09 12:39:41;;;;;;;15.13;10.57;;;16.40;65.90;;;;;;4999924;28;20377;-75
2021/10/09 12:42:06;;;;;;;12.43;8.65;;;16.50;66.80;;;;;;5010643;28;20385;-75
2021/10/09 12:44:32;;;;;;;15.70;10.60;;;16.70;67.10;;;;;;5006628;28;20079;-75
2021/10/09 12:46:58;;;;;;;12.40;9.02;;;16.90;66.60;;;;;;5008371;28;20083;-75
2021/10/09 12:49:23;;;;;;;16.52;11.30;;;17.10;66.70;;;;;;5004406;28;20052;-75
2021/10/09 12:51:49;;;;;;;13.13;9.07;;;17.20;66.50;;;;;;5007805;28;20113;-76
2021/10/09 12:54:18;;;;;;;15.27;10.07;;;17.40;66.20;;;;;;5005320;28;20047;-76
2021/10/09 12:56:45;;;;;;;15.07;10.40;;;17.40;65.50;;;;;;5008331;28;20026;-77
2021/10/09 12:59:11;;;;;;;15.57;10.75;;;17.40;65.40;;;;;;5004493;28;20114;-77
2021/10/09 13:01:37;;;;;;;13.25;9.20;;;17.60;65.40;;;;;;5006236;28;20091;-77
2021/10/09 13:04:04;;;;;;;19.90;14.73;;;17.70;65.50;;;;;;5007544;28;20080;-76
2021/10/09 13:06:29;;;;;;;16.58;12.13;;;17.60;63.70;;;;;;5007628;28;20615;-76
2021/10/09 13:08:56;;;;;;;16.00;10.35;;;17.50;64.20;;;;;;5005702;28;20108;-77
2021/10/09 13:11:28;;;;;;;17.75;13.10;;;17.50;64.60;;;;;;5007067;28;20097;-77
2021/10/09 13:13:53;;;;;;;15.88;11.63;;;17.40;63.70;;;;;;5003921;28;20030;-76
2021/10/09 13:16:19;;;;;;;18.63;12.07;;;17.40;63.90;;;;;;5008335;28;20094;-76
2021/10/09 13:18:45;;;;;;;13.10;9.43;;;17.40;63.80;;;;;;5010014;28;20034;-77
2021/10/09 13:21:11;;;;;;;16.33;11.13;;;17.50;63.90;;;;;;5001925;28;20022;-77
2021/10/09 13:23:37;;;;;;;15.52;12.18;;;17.50;63.90;;;;;;5005865;28;20034;-74
2021/10/09 13:26:03;;;;;;;13.70;9.68;;;17.50;63.70;;;;;;5008941;28;20023;-75
2021/10/09 13:28:29;;;;;;;11.85;7.93;;;17.70;64.10;;;;;;5014322;28;20019;-74
2021/10/09 13:30:55;;;;;;;13.25;9.68;;;17.90;64.20;;;;;;5003450;28;20038;-75
2021/10/09 13:33:20;;;;;;;14.48;11.32;;;18.10;63.70;;;;;;5005403;28;20014;-74
2021/10/09 13:35:46;;;;;;;12.32;8.55;;;18.10;62.80;;;;;;5005022;28;20049;-77
2021/10/09 13:38:14;;;;;;;12.65;9.40;;;18.20;63.30;;;;;;5008375;28;20032;-76
2021/10/09 13:40:40;;;;;;;11.40;7.97;;;18.30;62.80;;;;;;5003479;28;20516;-76
2021/10/09 13:43:11;;;;;;;11.27;7.80;;;18.40;62.70;;;;;;5002581;28;20064;-76
2021/10/09 13:45:40;;;;;;;16.27;12.20;;;18.50;63.10;;;;;;5001277;28;20083;-76
2021/10/09 13:48:06;;;;;;;12.35;9.35;;;18.60;62.00;;;;;;5005863;28;20490;-76
2021/10/09 13:50:36;;;;;;;10.63;7.47;;;18.70;62.30;;;;;;5007107;28;20053;-75
2021/10/09 13:53:02;;;;;;;12.07;7.95;;;18.80;62.50;;;;;;5008350;28;20032;-75
2021/10/09 13:55:28;;;;;;;9.15;6.78;;;19.00;62.40;;;;;;5006908;28;20050;-75
2021/10/09 13:57:53;;;;;;;12.77;9.55;;;19.10;62.20;;;;;;5032187;28;20037;-76
2021/10/09 14:00:19;;;;;;;11.60;8.52;;;19.00;61.50;;;;;;5003298;28;20376;-76
2021/10/09 14:02:46;;;;;;;11.95;8.43;;;19.00;61.70;;;;;;5002800;28;20574;-76
2021/10/09 14:05:11;;;;;;;14.25;9.20;;;19.00;61.80;;;;;;5002977;28;20030;-75
2021/10/09 14:07:37;;;;;;;12.98;9.50;;;18.90;61.40;;;;;;5004892;28;20053;-76
2021/10/09 14:10:03;;;;;;;13.98;9.60;;;18.80;61.80;;;;;;5004278;28;20022;-75
2021/10/09 14:12:28;;;;;;;10.38;7.90;;;18.60;61.90;;;;;;5007196;28;20511;-74
2021/10/09 14:14:54;;;;;;;15.23;9.85;;;18.70;62.40;;;;;;5001840;28;20029;-74
2021/10/09 14:17:19;;;;;;;15.68;11.48;;;18.60;62.00;;;;;;5001135;28;20048;-74
2021/10/09 14:19:45;;;;;;;15.52;9.77;;;18.60;61.70;;;;;;5005534;28;20038;-74
2021/10/09 14:22:10;;;;;;;13.45;9.60;;;18.50;61.70;;;;;;5003659;28;20428;-74
2021/10/09 14:24:36;;;;;;;10.57;7.72;;;18.40;61.90;;;;;;5004905;28;20486;-74
2021/10/09 14:27:01;;;;;;;11.15;7.78;;;18.50;62.30;;;;;;5007495;28;20017;-74
2021/10/09 14:29:27;;;;;;;13.70;10.07;;;18.60;62.20;;;;;;5007261;28;20026;-75
2021/10/09 14:31:54;;;;;;;11.80;8.88;;;18.50;61.80;;;;;;5008756;28;20030;-75